createdAt,value
2019-04-14T00:04:34.009Z,36.43
2019-04-14T00:09:40.125Z,32.53
2019-04-14T00:14:46.953Z,37.90
2019-04-14T00:19:52.867Z,36.53
2019-04-14T00:24:59.635Z,34.97
2019-04-14T00:30:09.708Z,34.20
2019-04-14T00:35:25.487Z,40.60
2019-04-14T00:40:36.822Z,41.00
2019-04-14T00:45:52.529Z,33.80
2019-04-14T00:50:55.992Z,42.67
2019-04-14T00:56:02.015Z,35.23
2019-04-14T01:01:09.415Z,33.27
2019-04-14T01:06:16.410Z,33.83
2019-04-14T01:11:22.498Z,40.57
2019-04-14T01:16:29.712Z,32.70
2019-04-14T01:21:35.258Z,32.03
2019-04-14T01:26:41.995Z,34.00
2019-04-14T01:31:47.751Z,37.50
2019-04-14T01:36:54.034Z,36.10
2019-04-14T01:42:04.846Z,33.77
2019-04-14T01:52:34.566Z,36.10
2019-04-14T01:57:50.554Z,35.33
2019-04-14T02:02:57.396Z,32.60
2019-04-14T02:08:04.969Z,31.43
2019-04-14T02:13:13.585Z,33.63
2019-04-14T02:18:20.712Z,37.67
2019-04-14T02:23:27.903Z,36.23
2019-04-14T02:28:36.000Z,38.13
2019-04-14T02:34:07.536Z,31.97
2019-04-14T02:39:23.526Z,31.40
2019-04-14T02:44:32.078Z,32.93
2019-04-14T02:49:41.534Z,32.60
2019-04-14T02:54:59.916Z,32.80
2019-04-14T03:05:20.814Z,32.37
2019-04-14T03:10:31.885Z,33.47
2019-04-14T03:15:39.894Z,30.83
2019-04-14T03:21:03.603Z,28.97
2019-04-14T03:26:25.345Z,27.13
2019-04-14T03:41:54.798Z,24.00
2019-04-14T03:47:08.888Z,22.80
2019-04-14T03:52:17.096Z,16.10
2019-04-14T03:56:57.680Z,17.37
2019-04-14T04:02:05.254Z,18.17
2019-04-14T04:07:12.385Z,14.07
2019-04-14T04:12:20.406Z,16.60
2019-04-14T04:17:47.209Z,14.83
2019-04-14T04:23:23.052Z,15.03
2019-04-14T04:28:56.434Z,13.83
2019-04-14T04:34:14.016Z,13.60
2019-04-14T04:39:23.930Z,15.47
2019-04-14T04:44:33.451Z,16.13
2019-04-14T04:49:40.471Z,14.83
2019-04-14T04:54:47.424Z,16.07
2019-04-14T04:59:56.049Z,14.90
2019-04-14T05:05:03.513Z,15.90
2019-04-14T05:10:26.350Z,12.17
2019-04-14T05:15:55.265Z,13.83
2019-04-14T05:21:21.745Z,10.90
2019-04-14T05:26:28.671Z,13.77
2019-04-14T05:31:35.995Z,12.10
2019-04-14T05:36:45.371Z,10.80
2019-04-14T05:42:01.491Z,12.03
2019-04-14T05:47:04.419Z,12.20
2019-04-14T05:52:12.093Z,10.20
2019-04-14T05:57:17.912Z,11.73
2019-04-14T06:02:28.897Z,12.67
2019-04-14T06:07:38.657Z,12.97
2019-04-14T06:12:48.128Z,11.17
2019-04-14T06:17:54.535Z,10.37
2019-04-14T06:23:02.556Z,11.30
2019-04-14T06:28:09.350Z,14.70
2019-04-14T06:33:24.194Z,15.10
2019-04-14T06:38:33.800Z,14.73
2019-04-14T06:43:48.612Z,12.63
2019-04-14T06:48:48.643Z,12.60
2019-04-14T06:53:54.593Z,12.93
2019-04-14T06:59:01.820Z,11.90
2019-04-14T07:04:08.776Z,10.57
2019-04-14T07:09:16.863Z,13.10
2019-04-14T07:14:23.486Z,13.40
2019-04-14T07:19:34.407Z,13.57
2019-04-14T07:24:39.965Z,14.90
2019-04-14T07:29:58.414Z,18.97
2019-04-14T07:35:21.505Z,14.40
2019-04-14T07:40:45.484Z,19.40
2019-04-14T07:46:18.781Z,13.20
2019-04-14T07:51:32.318Z,11.53
2019-04-14T07:56:57.976Z,11.67
2019-04-14T08:02:25.192Z,17.20
2019-04-14T08:07:32.694Z,15.20
2019-04-14T08:12:38.708Z,20.83
2019-04-14T08:17:44.245Z,18.43
2019-04-14T08:22:50.302Z,19.63
2019-04-14T08:28:01.903Z,15.67
2019-04-14T08:33:08.198Z,20.40
2019-04-14T08:38:14.133Z,18.37
2019-04-14T08:43:30.184Z,17.27
2019-04-14T08:49:10.189Z,18.47
2019-04-14T08:54:40.976Z,16.10
2019-04-14T09:00:21.042Z,18.43
2019-04-14T09:05:44.522Z,18.40
2019-04-14T09:10:53.299Z,21.57
2019-04-14T09:15:59.451Z,21.43
2019-04-14T09:21:08.274Z,20.60
2019-04-14T09:26:15.589Z,21.43
2019-04-14T09:31:21.550Z,18.07
2019-04-14T09:36:27.177Z,17.17
2019-04-14T09:41:33.377Z,18.87
2019-04-14T09:53:15.147Z,16.93
2019-04-14T09:58:21.744Z,17.07
2019-04-14T10:03:29.129Z,17.00
2019-04-14T10:08:34.948Z,17.10
2019-04-14T10:13:41.568Z,21.73
2019-04-14T10:18:49.688Z,17.30
2019-04-14T10:23:55.317Z,16.20
2019-04-14T10:29:04.475Z,15.50
2019-04-14T10:34:10.182Z,17.20
2019-04-14T10:39:16.598Z,18.23
2019-04-14T10:44:22.432Z,15.77
2019-04-14T10:49:30.050Z,20.00
2019-04-14T10:54:37.561Z,19.63
2019-04-14T10:59:43.566Z,20.57
2019-04-14T11:04:53.145Z,21.63
2019-04-14T11:10:00.090Z,18.57
2019-04-14T11:15:07.126Z,19.70
2019-04-14T11:20:14.611Z,23.00
2019-04-14T11:25:20.637Z,23.77
2019-04-14T11:30:26.567Z,29.07
2019-04-14T11:35:43.644Z,28.70
2019-04-14T11:40:59.350Z,35.40
2019-04-14T11:46:08.015Z,34.13
2019-04-14T11:51:19.691Z,32.10
2019-04-14T11:56:25.758Z,34.83
2019-04-14T12:01:54.344Z,34.60
2019-04-14T12:07:18.988Z,34.53
2019-04-14T12:12:25.273Z,28.70
2019-04-14T12:17:30.921Z,26.47
2019-04-14T12:22:40.424Z,29.87
2019-04-14T12:27:46.877Z,31.83
2019-04-14T12:32:53.174Z,31.87
2019-04-14T12:37:58.799Z,33.00
2019-04-14T12:43:25.140Z,29.43
2019-04-14T12:48:45.755Z,30.63
2019-04-14T12:53:54.717Z,32.70
2019-04-14T12:59:19.254Z,31.70
2019-04-14T13:04:27.156Z,42.37
2019-04-14T13:09:33.163Z,37.70
2019-04-14T13:14:41.449Z,46.30
2019-04-14T13:19:48.383Z,40.30
2019-04-14T13:24:55.812Z,45.77
2019-04-14T13:30:01.568Z,46.70
2019-04-14T13:35:09.281Z,51.43
2019-04-14T13:40:17.453Z,51.63
2019-04-14T13:45:23.615Z,48.80
2019-04-14T13:50:29.900Z,43.37
2019-04-14T13:55:37.055Z,57.27
2019-04-14T14:00:45.008Z,52.70
2019-04-14T14:05:50.678Z,54.50
2019-04-14T14:11:03.713Z,57.33
2019-04-14T14:16:44.994Z,50.27
2019-04-14T14:22:01.107Z,48.97
2019-04-14T14:27:12.101Z,59.67
2019-04-14T14:32:32.292Z,54.70
2019-04-14T14:37:39.517Z,57.33
2019-04-14T14:42:45.556Z,52.00
2019-04-14T14:48:07.987Z,49.30
2019-04-14T14:53:15.949Z,54.63
2019-04-14T14:58:24.302Z,56.40
2019-04-14T15:03:30.941Z,52.10
2019-04-14T15:08:37.814Z,54.47
2019-04-14T15:13:43.798Z,57.10
2019-04-14T15:18:52.177Z,46.80
2019-04-14T15:24:00.399Z,52.50
2019-04-14T15:29:07.964Z,50.70
2019-04-14T15:34:26.176Z,49.80
2019-04-14T15:39:32.258Z,52.33
2019-04-14T15:44:38.534Z,49.23
2019-04-14T15:49:48.101Z,53.37
2019-04-14T15:54:53.940Z,50.67
2019-04-14T16:00:18.126Z,50.80
2019-04-14T16:05:28.954Z,46.00
2019-04-14T16:11:07.234Z,51.47
2019-04-14T16:16:28.831Z,55.50
2019-04-14T16:21:36.993Z,62.90
2019-04-14T16:26:53.440Z,56.90
2019-04-14T16:32:15.045Z,49.83
2019-04-14T16:37:22.242Z,54.57
2019-04-14T16:42:29.292Z,50.23
2019-04-14T16:47:36.341Z,51.00
2019-04-14T16:52:48.663Z,51.83
2019-04-14T16:58:16.173Z,51.03
2019-04-14T17:03:23.201Z,55.63
2019-04-14T17:08:30.064Z,55.80
2019-04-14T17:13:41.338Z,47.37
2019-04-14T17:19:00.374Z,53.23
2019-04-14T17:24:27.395Z,54.43
2019-04-14T17:29:38.992Z,49.17
2019-04-14T17:35:03.268Z,59.60
2019-04-14T17:40:27.205Z,62.20
2019-04-14T17:45:50.709Z,57.53
2019-04-14T17:51:11.190Z,52.07
2019-04-14T17:56:32.018Z,65.63
2019-04-14T18:01:57.939Z,51.30
2019-04-14T18:07:23.393Z,52.80
2019-04-14T18:12:35.882Z,49.50
2019-04-14T18:18:00.542Z,50.00
2019-04-14T18:23:11.330Z,46.17
2019-04-14T18:28:44.303Z,50.07
2019-04-14T18:34:22.010Z,54.33
2019-04-14T18:39:53.903Z,51.30
2019-04-14T18:45:28.238Z,49.03
2019-04-14T18:50:56.315Z,51.60
2019-04-14T18:56:21.450Z,42.47
2019-04-14T19:01:30.337Z,47.00
2019-04-14T19:06:36.295Z,42.60
2019-04-14T19:12:00.370Z,41.07
2019-04-14T19:17:18.152Z,36.57
2019-04-14T19:22:24.754Z,39.50
2019-04-14T19:27:33.355Z,43.07
2019-04-14T19:32:41.196Z,40.20
2019-04-14T19:37:47.216Z,41.57
2019-04-14T19:42:53.379Z,51.70
2019-04-14T19:48:00.093Z,50.43
2019-04-14T19:53:07.667Z,43.10
2019-04-14T19:58:15.382Z,48.37
2019-04-14T20:03:22.433Z,53.73
2019-04-14T20:08:29.709Z,47.33
2019-04-14T20:13:40.504Z,53.77
2019-04-14T20:19:18.497Z,47.77
2019-04-14T20:24:37.060Z,49.70
2019-04-14T20:29:49.172Z,46.83
2019-04-14T20:34:54.598Z,49.07
2019-04-14T20:40:00.575Z,51.30
2019-04-14T20:45:09.819Z,48.10
2019-04-14T20:50:17.037Z,50.90
2019-04-14T20:55:23.055Z,48.60
2019-04-14T21:00:28.674Z,51.93
2019-04-14T21:05:52.449Z,48.27
2019-04-14T21:11:04.938Z,49.97
2019-04-14T21:16:19.986Z,47.07
2019-04-14T21:21:34.217Z,46.40
2019-04-14T21:27:11.017Z,46.30
2019-04-14T21:32:29.692Z,49.37
2019-04-14T21:37:52.953Z,45.20
2019-04-14T21:42:58.721Z,42.87
2019-04-14T21:48:04.406Z,44.00
2019-04-14T21:53:10.140Z,42.17
2019-04-14T21:58:24.011Z,45.37
2019-04-14T22:03:54.714Z,40.03
2019-04-14T22:09:01.205Z,42.83
2019-04-14T22:14:08.346Z,39.30
2019-04-14T22:19:13.888Z,43.77
2019-04-14T22:24:19.825Z,50.10
2019-04-14T22:29:26.120Z,45.67
2019-04-14T22:34:33.593Z,44.67
2019-04-14T22:39:39.505Z,43.73
2019-04-14T22:44:45.376Z,42.37
2019-04-14T22:49:51.088Z,42.90
2019-04-14T22:54:56.876Z,38.67
2019-04-14T23:00:03.672Z,42.10
2019-04-14T23:05:36.426Z,41.90
2019-04-14T23:11:01.963Z,35.50
2019-04-14T23:16:31.497Z,41.90
2019-04-14T23:21:48.853Z,38.27
2019-04-14T23:26:54.548Z,37.60
2019-04-14T23:32:00.665Z,43.67
2019-04-14T23:37:07.376Z,41.23
2019-04-14T23:42:13.507Z,42.93
2019-04-14T23:47:19.075Z,45.03
2019-04-14T23:52:24.647Z,40.43
2019-04-14T23:57:31.053Z,42.57
